DLH85K LEBB-EDDF
Flight info
| Callsign | DLH85K |
|---|---|
| Flight time | N/A |
| Altitude | 34000 |
| Route | BISKA5A BISKA P87 BELEN DCT ECRIM DCT DIDIG DCT TIRAV DCT ERJAZ DCT PIWIZ DCT TSU DCT OQQAL DCT RANUX/N0454F350 DCT VALEK DCT LIPNI UN858 LIMGO/N0452F330 Z111 RAMOB IMCOM1A |
| Aircraft | A321/M-SDE3FGHIRWY/LB1 |
Departure
| Time | 2026-05-06 09:16 |
|---|---|
| Airport | Bilbao Airport (LEBB) |
Arrival
| Time | N/A |
|---|---|
| Airport | Frankfurt Main Airport (EDDF) |
| Time | Latitude | Longitude | Altitude | Speed | Heading |
|---|---|---|---|---|---|
| 2026-05-06 09:08 | 43.30358 | -2.90665 | 127 ft | 0 kts | 117° |
| 2026-05-06 09:09 | 43.30358 | -2.90664 | 127 ft | 1 kts | 117° |
| 2026-05-06 09:10 | 43.30354 | -2.90653 | 124 ft | 3 kts | 117° |
| 2026-05-06 09:10 | 43.30333 | -2.90608 | 125 ft | 6 kts | 133° |
| 2026-05-06 09:10 | 43.30294 | -2.90570 | 123 ft | 7 kts | 144° |
| 2026-05-06 09:10 | 43.30246 | -2.90532 | 126 ft | 9 kts | 162° |
| 2026-05-06 09:11 | 43.30185 | -2.90554 | 125 ft | 10 kts | 206° |
| 2026-05-06 09:11 | 43.30122 | -2.90562 | 125 ft | 9 kts | 147° |
| 2026-05-06 09:11 | 43.30088 | -2.90491 | 126 ft | 9 kts | 118° |
| 2026-05-06 09:11 | 43.30057 | -2.90410 | 126 ft | 10 kts | 117° |
| 2026-05-06 09:12 | 43.30025 | -2.90323 | 127 ft | 11 kts | 117° |
| 2026-05-06 09:12 | 43.29992 | -2.90230 | 125 ft | 11 kts | 116° |
| 2026-05-06 09:12 | 43.29956 | -2.90132 | 126 ft | 12 kts | 116° |
| 2026-05-06 09:12 | 43.29919 | -2.90028 | 125 ft | 12 kts | 117° |
| 2026-05-06 09:13 | 43.29879 | -2.89921 | 127 ft | 13 kts | 117° |
| 2026-05-06 09:13 | 43.29838 | -2.89811 | 126 ft | 13 kts | 117° |
| 2026-05-06 09:13 | 43.29795 | -2.89696 | 125 ft | 14 kts | 117° |
| 2026-05-06 09:13 | 43.29752 | -2.89578 | 127 ft | 14 kts | 116° |
| 2026-05-06 09:14 | 43.29707 | -2.89495 | 125 ft | 9 kts | 157° |
| 2026-05-06 09:14 | 43.29662 | -2.89532 | 123 ft | 7 kts | 248° |
| 2026-05-06 09:14 | 43.29642 | -2.89599 | 124 ft | 8 kts | 248° |
| 2026-05-06 09:14 | 43.29613 | -2.89676 | 123 ft | 9 kts | 255° |
| 2026-05-06 09:15 | 43.29622 | -2.89726 | 125 ft | 1 kts | 295° |
| 2026-05-06 09:15 | 43.29625 | -2.89735 | 125 ft | 2 kts | 295° |
| 2026-05-06 09:15 | 43.29710 | -2.89965 | 123 ft | 62 kts | 297° |
| 2026-05-06 09:15 | 43.30002 | -2.90755 | 126 ft | 124 kts | 297° |
| 2026-05-06 09:16 | 43.30456 | -2.91999 | 381 ft | 149 kts | 296° |
| 2026-05-06 09:16 | 43.30886 | -2.93174 | 1258 ft | 137 kts | 298° |
| 2026-05-06 09:16 | 43.31346 | -2.94393 | 1798 ft | 148 kts | 297° |
| 2026-05-06 09:16 | 43.31826 | -2.95686 | 2250 ft | 157 kts | 295° |
| 2026-05-06 09:17 | 43.32373 | -2.97014 | 2718 ft | 164 kts | 309° |
| 2026-05-06 09:17 | 43.33302 | -2.97985 | 3166 ft | 173 kts | 320° |
| 2026-05-06 09:17 | 43.34212 | -2.99079 | 3673 ft | 174 kts | 313° |
| 2026-05-06 09:17 | 43.35067 | -3.00246 | 4153 ft | 179 kts | 312° |
| 2026-05-06 09:18 | 43.35957 | -3.01483 | 4585 ft | 185 kts | 313° |
| 2026-05-06 09:18 | 43.36906 | -3.02797 | 4815 ft | 201 kts | 313° |
| 2026-05-06 09:18 | 43.37912 | -3.04178 | 5176 ft | 207 kts | 313° |
| 2026-05-06 09:18 | 43.38949 | -3.05586 | 5577 ft | 212 kts | 314° |
| 2026-05-06 09:19 | 43.40025 | -3.06959 | 6206 ft | 212 kts | 323° |
| 2026-05-06 09:19 | 43.41406 | -3.07697 | 6760 ft | 220 kts | 351° |
| 2026-05-06 09:19 | 43.42969 | -3.07299 | 7033 ft | 247 kts | 26° |
| 2026-05-06 09:19 | 43.44232 | -3.05561 | 7405 ft | 268 kts | 51° |
| 2026-05-06 09:20 | 43.45211 | -3.03307 | 7832 ft | 283 kts | 59° |
| 2026-05-06 09:20 | 43.45994 | -3.00815 | 8384 ft | 291 kts | 66° |
| 2026-05-06 09:20 | 43.46618 | -2.98142 | 9001 ft | 295 kts | 67° |
| 2026-05-06 09:20 | 43.47422 | -2.95560 | 9643 ft | 293 kts | 56° |
| 2026-05-06 09:21 | 43.48565 | -2.93268 | 10256 ft | 290 kts | 44° |
| 2026-05-06 09:21 | 43.50053 | -2.91365 | 10554 ft | 299 kts | 31° |
| 2026-05-06 09:21 | 43.51910 | -2.89949 | 10684 ft | 312 kts | 18° |
| 2026-05-06 09:21 | 43.54002 | -2.88877 | 10815 ft | 329 kts | 17° |
| 2026-05-06 09:22 | 43.56203 | -2.87750 | 10935 ft | 346 kts | 17° |
| 2026-05-06 09:22 | 43.58477 | -2.86573 | 11067 ft | 361 kts | 17° |
| 2026-05-06 09:22 | 43.60866 | -2.85326 | 11339 ft | 371 kts | 17° |
| 2026-05-06 09:22 | 43.63291 | -2.84055 | 11765 ft | 375 kts | 18° |
| 2026-05-06 09:23 | 43.65736 | -2.82769 | 12249 ft | 377 kts | 18° |
| 2026-05-06 09:23 | 43.68202 | -2.81503 | 12782 ft | 378 kts | 14° |
| 2026-05-06 09:23 | 43.70759 | -2.80609 | 13294 ft | 380 kts | 11° |
| 2026-05-06 09:23 | 43.73345 | -2.79780 | 13858 ft | 383 kts | 11° |
| 2026-05-06 09:24 | 43.75950 | -2.78939 | 14317 ft | 386 kts | 11° |
| 2026-05-06 09:24 | 43.78571 | -2.78087 | 14754 ft | 388 kts | 11° |
| 2026-05-06 09:24 | 43.81203 | -2.77224 | 15168 ft | 391 kts | 11° |
| 2026-05-06 09:24 | 43.83824 | -2.76358 | 15563 ft | 394 kts | 11° |
| 2026-05-06 09:25 | 43.86495 | -2.75471 | 15987 ft | 396 kts | 12° |
| 2026-05-06 09:25 | 43.89148 | -2.74366 | 16375 ft | 400 kts | 15° |
| 2026-05-06 09:25 | 43.91799 | -2.73155 | 16796 ft | 402 kts | 16° |
| 2026-05-06 09:25 | 43.94455 | -2.71883 | 17184 ft | 405 kts | 17° |
| 2026-05-06 09:26 | 43.97120 | -2.70577 | 17583 ft | 407 kts | 17° |
| 2026-05-06 09:26 | 43.99799 | -2.69262 | 17989 ft | 410 kts | 17° |
| 2026-05-06 09:26 | 44.02497 | -2.67947 | 18357 ft | 412 kts | 17° |
| 2026-05-06 09:26 | 44.05181 | -2.66655 | 18696 ft | 414 kts | 17° |
| 2026-05-06 09:27 | 44.07911 | -2.65351 | 19055 ft | 416 kts | 17° |
| 2026-05-06 09:27 | 44.10656 | -2.64043 | 19408 ft | 418 kts | 17° |
| 2026-05-06 09:27 | 44.13416 | -2.62730 | 19758 ft | 420 kts | 17° |
| 2026-05-06 09:27 | 44.16183 | -2.61410 | 20151 ft | 422 kts | 17° |
| 2026-05-06 09:28 | 44.18970 | -2.60076 | 20577 ft | 424 kts | 17° |
| 2026-05-06 09:28 | 44.21764 | -2.58733 | 21022 ft | 426 kts | 17° |
| 2026-05-06 09:28 | 44.24567 | -2.57379 | 21369 ft | 427 kts | 17° |
| 2026-05-06 09:28 | 44.27381 | -2.56017 | 21725 ft | 429 kts | 17° |
| 2026-05-06 09:29 | 44.30167 | -2.54669 | 22032 ft | 431 kts | 17° |
| 2026-05-06 09:29 | 44.33006 | -2.53299 | 22386 ft | 432 kts | 18° |
| 2026-05-06 09:29 | 44.35857 | -2.51926 | 22691 ft | 435 kts | 17° |
| 2026-05-06 09:29 | 44.38720 | -2.50545 | 23030 ft | 436 kts | 18° |
| 2026-05-06 09:30 | 44.41594 | -2.49159 | 23338 ft | 438 kts | 18° |
| 2026-05-06 09:30 | 44.44483 | -2.47762 | 23641 ft | 440 kts | 18° |
| 2026-05-06 09:30 | 44.47379 | -2.46361 | 23910 ft | 441 kts | 18° |
| 2026-05-06 09:30 | 44.50286 | -2.44956 | 24200 ft | 442 kts | 18° |
| 2026-05-06 09:31 | 44.53157 | -2.43565 | 24454 ft | 443 kts | 18° |
| 2026-05-06 09:31 | 44.56074 | -2.42142 | 24719 ft | 444 kts | 18° |
| 2026-05-06 09:31 | 44.58993 | -2.40716 | 24970 ft | 445 kts | 18° |
| 2026-05-06 09:31 | 44.61917 | -2.39287 | 25215 ft | 446 kts | 18° |
| 2026-05-06 09:32 | 44.64851 | -2.37852 | 25444 ft | 446 kts | 18° |
| 2026-05-06 09:32 | 44.67769 | -2.36422 | 25745 ft | 445 kts | 18° |
| 2026-05-06 09:32 | 44.70682 | -2.34934 | 26065 ft | 444 kts | 23° |
| 2026-05-06 09:32 | 44.73427 | -2.32952 | 26362 ft | 443 kts | 27° |
| 2026-05-06 09:33 | 44.76142 | -2.30914 | 26680 ft | 441 kts | 27° |
| 2026-05-06 09:33 | 44.78807 | -2.28909 | 27013 ft | 440 kts | 27° |
| 2026-05-06 09:33 | 44.81499 | -2.26877 | 27356 ft | 438 kts | 27° |
| 2026-05-06 09:33 | 44.84172 | -2.24850 | 27682 ft | 436 kts | 27° |
| 2026-05-06 09:34 | 44.86838 | -2.22826 | 28027 ft | 434 kts | 27° |
| 2026-05-06 09:34 | 44.89497 | -2.20809 | 28353 ft | 433 kts | 27° |
| 2026-05-06 09:34 | 44.92147 | -2.18801 | 28703 ft | 431 kts | 27° |
| 2026-05-06 09:34 | 44.94785 | -2.16799 | 29034 ft | 430 kts | 27° |
| 2026-05-06 09:35 | 44.97413 | -2.14796 | 29365 ft | 428 kts | 27° |
| 2026-05-06 09:35 | 44.99996 | -2.12826 | 29690 ft | 427 kts | 27° |
| 2026-05-06 09:35 | 45.02604 | -2.10836 | 30017 ft | 425 kts | 27° |
| 2026-05-06 09:35 | 45.05206 | -2.08852 | 30263 ft | 425 kts | 27° |
| 2026-05-06 09:36 | 45.07811 | -2.06867 | 30447 ft | 426 kts | 27° |
| 2026-05-06 09:36 | 45.10424 | -2.04875 | 30621 ft | 427 kts | 27° |
| 2026-05-06 09:36 | 45.13045 | -2.02875 | 30791 ft | 428 kts | 27° |
| 2026-05-06 09:36 | 45.15671 | -2.00865 | 30968 ft | 430 kts | 27° |
| 2026-05-06 09:37 | 45.18301 | -1.98843 | 31133 ft | 431 kts | 27° |
| 2026-05-06 09:37 | 45.20933 | -1.96818 | 31323 ft | 431 kts | 27° |
| 2026-05-06 09:37 | 45.23541 | -1.94815 | 31508 ft | 432 kts | 27° |
| 2026-05-06 09:37 | 45.26186 | -1.92782 | 31712 ft | 433 kts | 27° |
| 2026-05-06 09:38 | 45.28836 | -1.90742 | 31869 ft | 434 kts | 27° |
| 2026-05-06 09:38 | 45.31501 | -1.88689 | 32028 ft | 436 kts | 27° |
| 2026-05-06 09:38 | 45.34169 | -1.86633 | 32214 ft | 437 kts | 27° |
| 2026-05-06 09:38 | 45.36839 | -1.84573 | 32377 ft | 437 kts | 27° |
| 2026-05-06 09:39 | 45.39511 | -1.82511 | 32566 ft | 437 kts | 27° |
| 2026-05-06 09:39 | 45.42181 | -1.80447 | 32785 ft | 437 kts | 27° |
| 2026-05-06 09:39 | 45.44814 | -1.78402 | 32970 ft | 437 kts | 27° |
| 2026-05-06 09:39 | 45.47483 | -1.76326 | 33152 ft | 437 kts | 27° |
| 2026-05-06 09:40 | 45.50152 | -1.74249 | 33313 ft | 438 kts | 27° |
| 2026-05-06 09:40 | 45.52824 | -1.72172 | 33507 ft | 437 kts | 27° |
| 2026-05-06 09:40 | 45.58167 | -1.68014 | 33871 ft | 437 kts | 28° |
| 2026-05-06 09:41 | 45.60832 | -1.65933 | 34055 ft | 437 kts | 28° |
| 2026-05-06 09:41 | 45.63499 | -1.63849 | 34234 ft | 436 kts | 28° |
| 2026-05-06 09:41 | 45.66126 | -1.61795 | 34374 ft | 437 kts | 27° |
| 2026-05-06 09:41 | 45.68791 | -1.59711 | 34529 ft | 436 kts | 27° |
| 2026-05-06 09:42 | 45.71456 | -1.57628 | 34640 ft | 437 kts | 27° |
| 2026-05-06 09:42 | 45.74121 | -1.55542 | 34768 ft | 437 kts | 27° |
| 2026-05-06 09:42 | 45.76791 | -1.53446 | 34888 ft | 438 kts | 27° |
| 2026-05-06 09:42 | 45.79463 | -1.51341 | 35002 ft | 439 kts | 28° |
| 2026-05-06 09:43 | 45.82143 | -1.49231 | 35124 ft | 439 kts | 27° |
| 2026-05-06 09:43 | 45.84823 | -1.47120 | 35242 ft | 440 kts | 28° |
| 2026-05-06 09:43 | 45.87468 | -1.45033 | 35364 ft | 440 kts | 27° |
| 2026-05-06 09:43 | 45.90153 | -1.42909 | 35484 ft | 441 kts | 27° |
| 2026-05-06 09:44 | 45.92842 | -1.40779 | 35602 ft | 441 kts | 27° |
| 2026-05-06 09:44 | 45.95529 | -1.38649 | 35722 ft | 442 kts | 27° |
| 2026-05-06 09:44 | 45.98219 | -1.36519 | 35882 ft | 441 kts | 27° |
| 2026-05-06 09:44 | 46.00911 | -1.34385 | 35923 ft | 443 kts | 27° |
| 2026-05-06 09:45 | 46.06344 | -1.30076 | 35917 ft | 448 kts | 27° |
| 2026-05-06 09:45 | 46.11774 | -1.25763 | 35953 ft | 449 kts | 28° |
| 2026-05-06 09:46 | 46.17241 | -1.21393 | 35945 ft | 449 kts | 28° |
| 2026-05-06 09:46 | 46.22705 | -1.17016 | 35948 ft | 450 kts | 28° |
| 2026-05-06 09:47 | 46.28193 | -1.12624 | 35951 ft | 451 kts | 28° |
| 2026-05-06 09:47 | 46.33688 | -1.08211 | 35954 ft | 452 kts | 28° |
| 2026-05-06 09:48 | 46.39148 | -1.03810 | 35960 ft | 452 kts | 28° |
| 2026-05-06 09:48 | 46.44647 | -0.99381 | 35950 ft | 452 kts | 28° |
| 2026-05-06 09:49 | 46.50142 | -0.94934 | 35946 ft | 452 kts | 28° |
| 2026-05-06 09:49 | 46.55631 | -0.90470 | 35945 ft | 452 kts | 28° |
| 2026-05-06 09:50 | 46.61082 | -0.86035 | 35950 ft | 452 kts | 28° |
| 2026-05-06 09:50 | 46.66563 | -0.81574 | 35956 ft | 451 kts | 28° |
| 2026-05-06 09:51 | 46.72047 | -0.77097 | 35930 ft | 452 kts | 29° |
| 2026-05-06 09:51 | 46.77540 | -0.72593 | 35930 ft | 454 kts | 29° |
| 2026-05-06 09:52 | 46.83048 | -0.68068 | 35939 ft | 455 kts | 29° |
| 2026-05-06 09:52 | 46.88529 | -0.63559 | 35955 ft | 455 kts | 29° |
| 2026-05-06 09:53 | 46.94053 | -0.59020 | 35954 ft | 456 kts | 29° |
| 2026-05-06 09:53 | 46.99576 | -0.54457 | 35949 ft | 456 kts | 29° |
| 2026-05-06 09:54 | 47.05091 | -0.49873 | 35959 ft | 455 kts | 29° |
| 2026-05-06 09:54 | 47.10567 | -0.45328 | 35956 ft | 455 kts | 29° |
| 2026-05-06 09:55 | 47.16081 | -0.40745 | 35959 ft | 456 kts | 29° |
| 2026-05-06 09:55 | 47.21594 | -0.36143 | 35967 ft | 455 kts | 30° |
| 2026-05-06 09:56 | 47.26563 | -0.30427 | 35964 ft | 455 kts | 44° |
| 2026-05-06 09:56 | 47.31043 | -0.23943 | 35964 ft | 454 kts | 44° |
| 2026-05-06 09:57 | 47.35558 | -0.17437 | 35966 ft | 454 kts | 44° |
| 2026-05-06 09:57 | 47.40078 | -0.10929 | 35971 ft | 454 kts | 43° |
| 2026-05-06 09:58 | 47.44583 | -0.04394 | 35976 ft | 454 kts | 44° |
| 2026-05-06 09:58 | 47.49043 | 0.02110 | 35957 ft | 454 kts | 44° |
| 2026-05-06 09:59 | 47.53541 | 0.08675 | 35952 ft | 455 kts | 44° |
| 2026-05-06 09:59 | 47.58046 | 0.15252 | 35958 ft | 455 kts | 44° |
| 2026-05-06 10:00 | 47.62551 | 0.21848 | 35955 ft | 455 kts | 45° |
| 2026-05-06 10:00 | 47.67017 | 0.28422 | 35963 ft | 456 kts | 44° |
| 2026-05-06 10:01 | 47.71504 | 0.35048 | 35953 ft | 455 kts | 44° |
| 2026-05-06 10:01 | 47.75989 | 0.41674 | 35968 ft | 455 kts | 44° |
| 2026-05-06 10:02 | 47.80477 | 0.48310 | 35952 ft | 456 kts | 45° |
| 2026-05-06 10:02 | 47.84941 | 0.54932 | 35956 ft | 457 kts | 45° |
| 2026-05-06 10:03 | 47.89431 | 0.61628 | 35958 ft | 457 kts | 45° |
| 2026-05-06 10:03 | 47.93923 | 0.68344 | 35954 ft | 457 kts | 45° |
| 2026-05-06 10:04 | 47.98419 | 0.75068 | 35958 ft | 457 kts | 45° |
| 2026-05-06 10:04 | 48.02880 | 0.81746 | 35965 ft | 457 kts | 45° |
| 2026-05-06 10:05 | 48.07362 | 0.88500 | 35954 ft | 458 kts | 45° |
| 2026-05-06 10:05 | 48.11843 | 0.95276 | 35952 ft | 459 kts | 45° |
| 2026-05-06 10:06 | 48.16335 | 1.02068 | 35955 ft | 459 kts | 46° |
| 2026-05-06 10:06 | 48.20804 | 1.08827 | 35955 ft | 460 kts | 46° |
| 2026-05-06 10:07 | 48.24923 | 1.16146 | 35968 ft | 459 kts | 51° |
| 2026-05-06 10:07 | 48.28963 | 1.23566 | 35953 ft | 459 kts | 51° |
| 2026-05-06 10:08 | 48.32997 | 1.30987 | 35953 ft | 458 kts | 52° |
| 2026-05-06 10:08 | 48.36998 | 1.38369 | 35948 ft | 458 kts | 52° |
| 2026-05-06 10:09 | 48.41020 | 1.45816 | 35952 ft | 459 kts | 51° |
| 2026-05-06 10:09 | 48.45048 | 1.53263 | 35953 ft | 459 kts | 51° |
| 2026-05-06 10:10 | 48.49061 | 1.60729 | 35943 ft | 459 kts | 51° |
| 2026-05-06 10:10 | 48.53064 | 1.68225 | 35946 ft | 459 kts | 52° |
| 2026-05-06 10:11 | 48.57041 | 1.75666 | 35946 ft | 459 kts | 52° |
| 2026-05-06 10:11 | 48.61047 | 1.83170 | 35945 ft | 459 kts | 52° |
| 2026-05-06 10:12 | 48.65046 | 1.90691 | 35941 ft | 459 kts | 52° |
| 2026-05-06 10:12 | 48.69041 | 1.98228 | 35940 ft | 459 kts | 52° |
| 2026-05-06 10:13 | 48.73000 | 2.05741 | 35941 ft | 459 kts | 53° |
| 2026-05-06 10:13 | 48.76034 | 2.14179 | 35938 ft | 456 kts | 72° |
| 2026-05-06 10:14 | 48.77753 | 2.23434 | 35928 ft | 457 kts | 76° |
| 2026-05-06 10:14 | 48.79434 | 2.32747 | 35922 ft | 459 kts | 75° |
| 2026-05-06 10:15 | 48.81117 | 2.42092 | 35923 ft | 460 kts | 75° |
| 2026-05-06 10:15 | 48.82785 | 2.51402 | 35921 ft | 460 kts | 76° |
| 2026-05-06 10:16 | 48.84444 | 2.60794 | 35925 ft | 461 kts | 76° |
| 2026-05-06 10:16 | 48.86088 | 2.70208 | 35908 ft | 463 kts | 76° |